sensor_id;sensor_type;location;lat;lon;timestamp;temperature;humidity
2363;DHT22;64265;51.664;7.626;2022-10-16T00:00:44;22.10;99.90
2363;DHT22;64265;51.664;7.626;2022-10-16T00:03:11;22.10;99.90
2363;DHT22;64265;51.664;7.626;2022-10-16T00:05:39;22.10;99.90
2363;DHT22;64265;51.664;7.626;2022-10-16T00:08:07;22.10;99.90
2363;DHT22;64265;51.664;7.626;2022-10-16T00:10:34;22.10;99.90
2363;DHT22;64265;51.664;7.626;2022-10-16T00:13:03;22.10;99.90
2363;DHT22;64265;51.664;7.626;2022-10-16T00:15:30;22.10;99.90
2363;DHT22;64265;51.664;7.626;2022-10-16T00:17:57;22.00;99.90
2363;DHT22;64265;51.664;7.626;2022-10-16T00:20:23;22.00;99.90
2363;DHT22;64265;51.664;7.626;2022-10-16T00:22:50;22.00;99.90
2363;DHT22;64265;51.664;7.626;2022-10-16T00:25:17;22.00;99.90
2363;DHT22;64265;51.664;7.626;2022-10-16T00:27:44;22.00;99.90
2363;DHT22;64265;51.664;7.626;2022-10-16T00:30:12;22.00;99.90
2363;DHT22;64265;51.664;7.626;2022-10-16T00:32:38;22.00;99.90
2363;DHT22;64265;51.664;7.626;2022-10-16T00:35:06;22.00;99.90
2363;DHT22;64265;51.664;7.626;2022-10-16T00:37:32;21.90;99.90
2363;DHT22;64265;51.664;7.626;2022-10-16T00:39:59;21.90;99.90
2363;DHT22;64265;51.664;7.626;2022-10-16T00:42:26;21.90;99.90
2363;DHT22;64265;51.664;7.626;2022-10-16T00:44:55;21.90;99.90
2363;DHT22;64265;51.664;7.626;2022-10-16T00:47:27;21.90;99.90
2363;DHT22;64265;51.664;7.626;2022-10-16T00:49:59;21.90;99.90
2363;DHT22;64265;51.664;7.626;2022-10-16T00:52:26;21.90;99.90
2363;DHT22;64265;51.664;7.626;2022-10-16T00:54:53;21.80;99.90
2363;DHT22;64265;51.664;7.626;2022-10-16T00:57:21;21.80;99.90
2363;DHT22;64265;51.664;7.626;2022-10-16T00:59:48;21.80;99.90
2363;DHT22;64265;51.664;7.626;2022-10-16T01:02:16;21.80;99.90
2363;DHT22;64265;51.664;7.626;2022-10-16T01:04:46;21.80;99.90
2363;DHT22;64265;51.664;7.626;2022-10-16T01:07:22;21.80;99.90
2363;DHT22;64265;51.664;7.626;2022-10-16T01:09:57;21.80;99.90
2363;DHT22;64265;51.664;7.626;2022-10-16T01:12:36;21.70;99.90
2363;DHT22;64265;51.664;7.626;2022-10-16T01:15:10;21.70;99.90
2363;DHT22;64265;51.664;7.626;2022-10-16T01:18:06;21.70;99.90
2363;DHT22;64265;51.664;7.626;2022-10-16T01:20:39;21.70;99.90
2363;DHT22;64265;51.664;7.626;2022-10-16T01:23:18;21.70;99.90
2363;DHT22;64265;51.664;7.626;2022-10-16T01:25:59;21.70;99.90
2363;DHT22;64265;51.664;7.626;2022-10-16T01:28:36;21.70;99.90
2363;DHT22;64265;51.664;7.626;2022-10-16T01:31:06;21.60;99.90
2363;DHT22;64265;51.664;7.626;2022-10-16T01:33:37;21.60;99.90
2363;DHT22;64265;51.664;7.626;2022-10-16T01:36:10;21.60;99.90
2363;DHT22;64265;51.664;7.626;2022-10-16T01:38:39;21.60;99.90
2363;DHT22;64265;51.664;7.626;2022-10-16T01:41:09;21.60;99.90
2363;DHT22;64265;51.664;7.626;2022-10-16T01:43:42;21.50;99.90
2363;DHT22;64265;51.664;7.626;2022-10-16T01:46:10;21.50;99.90
2363;DHT22;64265;51.664;7.626;2022-10-16T01:48:39;21.40;99.90
2363;DHT22;64265;51.664;7.626;2022-10-16T01:51:09;21.40;99.90
2363;DHT22;64265;51.664;7.626;2022-10-16T01:53:37;21.40;99.90
2363;DHT22;64265;51.664;7.626;2022-10-16T01:56:08;21.40;99.90
2363;DHT22;64265;51.664;7.626;2022-10-16T01:58:40;21.40;99.90
2363;DHT22;64265;51.664;7.626;2022-10-16T02:01:11;21.40;99.90
2363;DHT22;64265;51.664;7.626;2022-10-16T02:03:40;21.40;99.90
2363;DHT22;64265;51.664;7.626;2022-10-16T02:06:08;21.30;99.90
2363;DHT22;64265;51.664;7.626;2022-10-16T02:08:36;21.30;99.90
2363;DHT22;64265;51.664;7.626;2022-10-16T02:11:04;21.30;99.90
2363;DHT22;64265;51.664;7.626;2022-10-16T02:13:35;21.20;99.90
2363;DHT22;64265;51.664;7.626;2022-10-16T02:16:05;21.20;99.90
2363;DHT22;64265;51.664;7.626;2022-10-16T02:18:32;21.20;99.90
2363;DHT22;64265;51.664;7.626;2022-10-16T02:21:01;21.20;99.90
2363;DHT22;64265;51.664;7.626;2022-10-16T02:23:35;21.20;99.90
2363;DHT22;64265;51.664;7.626;2022-10-16T02:26:07;21.10;99.90
2363;DHT22;64265;51.664;7.626;2022-10-16T02:28:38;21.10;99.90
2363;DHT22;64265;51.664;7.626;2022-10-16T02:31:10;21.10;99.90
2363;DHT22;64265;51.664;7.626;2022-10-16T02:33:39;21.10;99.90
2363;DHT22;64265;51.664;7.626;2022-10-16T02:36:07;21.10;99.90
2363;DHT22;64265;51.664;7.626;2022-10-16T02:38:34;21.10;99.90
2363;DHT22;64265;51.664;7.626;2022-10-16T02:41:02;21.10;99.90
2363;DHT22;64265;51.664;7.626;2022-10-16T02:43:29;21.10;99.90
2363;DHT22;64265;51.664;7.626;2022-10-16T02:45:56;21.10;99.90
2363;DHT22;64265;51.664;7.626;2022-10-16T02:48:24;21.10;99.90
2363;DHT22;64265;51.664;7.626;2022-10-16T02:50:51;21.10;99.90
2363;DHT22;64265;51.664;7.626;2022-10-16T02:53:17;21.10;99.90
2363;DHT22;64265;51.664;7.626;2022-10-16T02:55:44;21.00;99.90
2363;DHT22;64265;51.664;7.626;2022-10-16T02:58:11;21.00;99.90
2363;DHT22;64265;51.664;7.626;2022-10-16T03:00:37;21.00;99.90
2363;DHT22;64265;51.664;7.626;2022-10-16T03:03:04;21.00;99.90
2363;DHT22;64265;51.664;7.626;2022-10-16T03:05:32;21.00;99.90
2363;DHT22;64265;51.664;7.626;2022-10-16T03:07:59;21.00;99.90
2363;DHT22;64265;51.664;7.626;2022-10-16T03:10:26;21.00;99.90
2363;DHT22;64265;51.664;7.626;2022-10-16T03:12:53;21.00;99.90
2363;DHT22;64265;51.664;7.626;2022-10-16T03:15:19;21.00;99.90
2363;DHT22;64265;51.664;7.626;2022-10-16T03:17:46;21.00;99.90
2363;DHT22;64265;51.664;7.626;2022-10-16T03:20:13;20.90;99.90
2363;DHT22;64265;51.664;7.626;2022-10-16T03:22:42;20.90;99.90
2363;DHT22;64265;51.664;7.626;2022-10-16T03:25:08;20.90;99.90
2363;DHT22;64265;51.664;7.626;2022-10-16T03:27:35;20.80;99.90
2363;DHT22;64265;51.664;7.626;2022-10-16T03:30:02;21.40;99.90
2363;DHT22;64265;51.664;7.626;2022-10-16T03:32:29;21.90;99.90
2363;DHT22;64265;51.664;7.626;2022-10-16T03:34:55;22.20;99.90
2363;DHT22;64265;51.664;7.626;2022-10-16T03:37:23;22.30;99.90
2363;DHT22;64265;51.664;7.626;2022-10-16T03:39:51;22.40;99.90
2363;DHT22;64265;51.664;7.626;2022-10-16T03:42:17;22.60;99.90
2363;DHT22;64265;51.664;7.626;2022-10-16T03:44:44;22.80;99.90
2363;DHT22;64265;51.664;7.626;2022-10-16T03:47:11;22.80;99.90
2363;DHT22;64265;51.664;7.626;2022-10-16T03:49:38;22.80;99.90
2363;DHT22;64265;51.664;7.626;2022-10-16T03:52:04;22.70;99.90
2363;DHT22;64265;51.664;7.626;2022-10-16T03:54:31;22.70;99.90
2363;DHT22;64265;51.664;7.626;2022-10-16T03:56:59;22.60;99.90
2363;DHT22;64265;51.664;7.626;2022-10-16T03:59:26;22.50;99.90
2363;DHT22;64265;51.664;7.626;2022-10-16T04:01:52;22.40;99.90
2363;DHT22;64265;51.664;7.626;2022-10-16T04:04:19;22.40;99.90
2363;DHT22;64265;51.664;7.626;2022-10-16T04:06:46;22.40;99.90
2363;DHT22;64265;51.664;7.626;2022-10-16T04:09:12;22.30;99.90
2363;DHT22;64265;51.664;7.626;2022-10-16T04:11:39;22.30;99.90
2363;DHT22;64265;51.664;7.626;2022-10-16T04:14:07;22.20;99.90
2363;DHT22;64265;51.664;7.626;2022-10-16T04:16:34;22.20;99.90
2363;DHT22;64265;51.664;7.626;2022-10-16T04:19:01;22.20;99.90
2363;DHT22;64265;51.664;7.626;2022-10-16T04:21:27;22.10;99.90
2363;DHT22;64265;51.664;7.626;2022-10-16T04:23:54;22.10;99.90
2363;DHT22;64265;51.664;7.626;2022-10-16T04:26:21;22.10;99.90
2363;DHT22;64265;51.664;7.626;2022-10-16T04:28:47;22.10;99.90
2363;DHT22;64265;51.664;7.626;2022-10-16T04:31:15;22.00;99.90
2363;DHT22;64265;51.664;7.626;2022-10-16T04:33:42;22.00;99.90
2363;DHT22;64265;51.664;7.626;2022-10-16T04:36:09;22.00;99.90
2363;DHT22;64265;51.664;7.626;2022-10-16T04:38:36;22.00;99.90
2363;DHT22;64265;51.664;7.626;2022-10-16T04:41:03;22.00;99.90
2363;DHT22;64265;51.664;7.626;2022-10-16T04:43:30;21.90;99.90
2363;DHT22;64265;51.664;7.626;2022-10-16T04:45:56;21.90;99.90
2363;DHT22;64265;51.664;7.626;2022-10-16T04:48:25;21.90;99.90
2363;DHT22;64265;51.664;7.626;2022-10-16T04:50:51;21.90;99.90
2363;DHT22;64265;51.664;7.626;2022-10-16T04:53:18;22.00;99.90
2363;DHT22;64265;51.664;7.626;2022-10-16T04:55:45;22.00;99.90
2363;DHT22;64265;51.664;7.626;2022-10-16T04:58:12;22.00;99.90
2363;DHT22;64265;51.664;7.626;2022-10-16T05:00:38;22.00;99.90
2363;DHT22;64265;51.664;7.626;2022-10-16T05:03:05;22.00;99.90
2363;DHT22;64265;51.664;7.626;2022-10-16T05:05:35;22.10;99.90
2363;DHT22;64265;51.664;7.626;2022-10-16T05:08:02;22.10;99.90
2363;DHT22;64265;51.664;7.626;2022-10-16T05:10:29;22.10;99.90
2363;DHT22;64265;51.664;7.626;2022-10-16T05:12:56;22.20;99.90
2363;DHT22;64265;51.664;7.626;2022-10-16T05:15:22;22.20;99.90
2363;DHT22;64265;51.664;7.626;2022-10-16T05:17:52;22.20;99.90
2363;DHT22;64265;51.664;7.626;2022-10-16T05:20:19;22.30;99.90
2363;DHT22;64265;51.664;7.626;2022-10-16T05:22:47;22.30;99.90
2363;DHT22;64265;51.664;7.626;2022-10-16T05:25:14;22.30;99.90
2363;DHT22;64265;51.664;7.626;2022-10-16T05:27:40;22.30;99.90
2363;DHT22;64265;51.664;7.626;2022-10-16T05:30:08;22.40;99.90
2363;DHT22;64265;51.664;7.626;2022-10-16T05:32:35;22.40;99.90
2363;DHT22;64265;51.664;7.626;2022-10-16T05:35:01;22.40;99.90
2363;DHT22;64265;51.664;7.626;2022-10-16T05:37:28;22.40;99.90
2363;DHT22;64265;51.664;7.626;2022-10-16T05:39:56;22.40;99.90
2363;DHT22;64265;51.664;7.626;2022-10-16T05:42:23;22.40;99.90
2363;DHT22;64265;51.664;7.626;2022-10-16T05:44:49;22.40;99.90
2363;DHT22;64265;51.664;7.626;2022-10-16T05:47:16;22.40;99.90
2363;DHT22;64265;51.664;7.626;2022-10-16T05:49:43;22.40;99.90
2363;DHT22;64265;51.664;7.626;2022-10-16T05:52:09;22.30;99.90
2363;DHT22;64265;51.664;7.626;2022-10-16T05:54:36;22.30;99.90
2363;DHT22;64265;51.664;7.626;2022-10-16T05:57:04;22.30;99.90
2363;DHT22;64265;51.664;7.626;2022-10-16T05:59:32;22.30;99.90
2363;DHT22;64265;51.664;7.626;2022-10-16T06:01:59;22.30;99.90
2363;DHT22;64265;51.664;7.626;2022-10-16T06:04:26;22.30;99.90
2363;DHT22;64265;51.664;7.626;2022-10-16T06:06:53;22.30;99.90
2363;DHT22;64265;51.664;7.626;2022-10-16T06:09:19;22.30;99.90
2363;DHT22;64265;51.664;7.626;2022-10-16T06:11:46;22.30;99.90
2363;DHT22;64265;51.664;7.626;2022-10-16T06:14:14;22.30;99.90
2363;DHT22;64265;51.664;7.626;2022-10-16T06:16:41;22.30;99.90
2363;DHT22;64265;51.664;7.626;2022-10-16T06:19:07;22.30;99.90
2363;DHT22;64265;51.664;7.626;2022-10-16T06:21:34;22.30;99.90
2363;DHT22;64265;51.664;7.626;2022-10-16T06:24:01;22.30;99.90
2363;DHT22;64265;51.664;7.626;2022-10-16T06:26:30;22.30;99.90
2363;DHT22;64265;51.664;7.626;2022-10-16T06:28:58;22.30;99.90
2363;DHT22;64265;51.664;7.626;2022-10-16T06:31:27;22.30;99.90
2363;DHT22;64265;51.664;7.626;2022-10-16T06:33:57;22.30;99.90
2363;DHT22;64265;51.664;7.626;2022-10-16T06:36:24;22.30;99.90
2363;DHT22;64265;51.664;7.626;2022-10-16T06:38:51;22.30;99.90
2363;DHT22;64265;51.664;7.626;2022-10-16T06:41:20;22.30;99.90
2363;DHT22;64265;51.664;7.626;2022-10-16T06:43:47;22.30;99.90
2363;DHT22;64265;51.664;7.626;2022-10-16T06:46:16;22.40;99.90
2363;DHT22;64265;51.664;7.626;2022-10-16T06:48:44;22.40;99.90
2363;DHT22;64265;51.664;7.626;2022-10-16T06:51:13;22.40;99.90
2363;DHT22;64265;51.664;7.626;2022-10-16T06:53:42;22.40;99.90
2363;DHT22;64265;51.664;7.626;2022-10-16T06:56:09;22.50;99.90
2363;DHT22;64265;51.664;7.626;2022-10-16T06:58:36;22.50;99.90
2363;DHT22;64265;51.664;7.626;2022-10-16T07:01:03;22.50;99.90
2363;DHT22;64265;51.664;7.626;2022-10-16T07:03:30;22.50;99.90
2363;DHT22;64265;51.664;7.626;2022-10-16T07:06:01;22.50;99.90
2363;DHT22;64265;51.664;7.626;2022-10-16T07:08:31;22.50;99.90
2363;DHT22;64265;51.664;7.626;2022-10-16T07:10:59;22.50;99.90
2363;DHT22;64265;51.664;7.626;2022-10-16T07:13:26;22.50;99.90
2363;DHT22;64265;51.664;7.626;2022-10-16T07:15:52;22.50;99.90
2363;DHT22;64265;51.664;7.626;2022-10-16T07:18:19;22.50;99.90
2363;DHT22;64265;51.664;7.626;2022-10-16T07:20:46;22.60;99.90
2363;DHT22;64265;51.664;7.626;2022-10-16T07:23:14;22.50;99.90
2363;DHT22;64265;51.664;7.626;2022-10-16T07:25:41;22.50;99.90
2363;DHT22;64265;51.664;7.626;2022-10-16T07:28:07;22.60;99.90
2363;DHT22;64265;51.664;7.626;2022-10-16T07:30:35;22.60;99.90
2363;DHT22;64265;51.664;7.626;2022-10-16T07:33:03;22.60;99.90
2363;DHT22;64265;51.664;7.626;2022-10-16T07:35:29;22.60;99.90
2363;DHT22;64265;51.664;7.626;2022-10-16T07:37:56;22.60;99.90
2363;DHT22;64265;51.664;7.626;2022-10-16T07:40:24;22.60;99.90
2363;DHT22;64265;51.664;7.626;2022-10-16T07:42:52;22.60;99.90
2363;DHT22;64265;51.664;7.626;2022-10-16T07:45:19;22.60;99.90
2363;DHT22;64265;51.664;7.626;2022-10-16T07:47:45;22.60;99.90
2363;DHT22;64265;51.664;7.626;2022-10-16T07:50:12;22.70;99.90
2363;DHT22;64265;51.664;7.626;2022-10-16T07:52:39;22.70;99.90
2363;DHT22;64265;51.664;7.626;2022-10-16T07:55:06;22.70;99.90
2363;DHT22;64265;51.664;7.626;2022-10-16T07:57:34;22.70;99.90
2363;DHT22;64265;51.664;7.626;2022-10-16T08:00:01;22.80;99.90
2363;DHT22;64265;51.664;7.626;2022-10-16T08:02:28;22.70;99.90
2363;DHT22;64265;51.664;7.626;2022-10-16T08:04:55;22.70;99.90
2363;DHT22;64265;51.664;7.626;2022-10-16T08:07:22;22.80;99.90
2363;DHT22;64265;51.664;7.626;2022-10-16T08:09:49;22.80;99.90
2363;DHT22;64265;51.664;7.626;2022-10-16T08:12:17;22.90;99.90
2363;DHT22;64265;51.664;7.626;2022-10-16T08:14:45;22.90;99.90
2363;DHT22;64265;51.664;7.626;2022-10-16T08:17:14;22.90;99.90
2363;DHT22;64265;51.664;7.626;2022-10-16T08:19:44;22.90;99.90
2363;DHT22;64265;51.664;7.626;2022-10-16T08:22:11;23.00;99.90
2363;DHT22;64265;51.664;7.626;2022-10-16T08:24:38;22.90;99.90
2363;DHT22;64265;51.664;7.626;2022-10-16T08:27:04;22.90;99.90
2363;DHT22;64265;51.664;7.626;2022-10-16T08:29:32;22.90;99.90
2363;DHT22;64265;51.664;7.626;2022-10-16T08:32:00;23.00;99.90
2363;DHT22;64265;51.664;7.626;2022-10-16T08:34:26;23.00;99.90
2363;DHT22;64265;51.664;7.626;2022-10-16T08:36:53;23.00;99.90
2363;DHT22;64265;51.664;7.626;2022-10-16T08:39:20;23.10;99.90
2363;DHT22;64265;51.664;7.626;2022-10-16T08:42:09;23.00;99.90
2363;DHT22;64265;51.664;7.626;2022-10-16T08:44:51;23.00;99.90
2363;DHT22;64265;51.664;7.626;2022-10-16T08:47:29;23.00;99.90
2363;DHT22;64265;51.664;7.626;2022-10-16T08:50:08;23.00;99.90
2363;DHT22;64265;51.664;7.626;2022-10-16T08:52:39;23.00;99.90
2363;DHT22;64265;51.664;7.626;2022-10-16T08:55:08;23.00;99.90
2363;DHT22;64265;51.664;7.626;2022-10-16T08:57:41;22.90;99.90
2363;DHT22;64265;51.664;7.626;2022-10-16T09:00:13;23.00;99.90
2363;DHT22;64265;51.664;7.626;2022-10-16T09:02:48;23.00;99.90
2363;DHT22;64265;51.664;7.626;2022-10-16T09:05:25;23.00;99.90
2363;DHT22;64265;51.664;7.626;2022-10-16T09:07:59;23.00;99.90
2363;DHT22;64265;51.664;7.626;2022-10-16T09:10:37;23.10;99.90
2363;DHT22;64265;51.664;7.626;2022-10-16T09:13:15;23.00;99.90
2363;DHT22;64265;51.664;7.626;2022-10-16T09:15:47;23.10;99.90
2363;DHT22;64265;51.664;7.626;2022-10-16T09:18:20;23.10;99.90
2363;DHT22;64265;51.664;7.626;2022-10-16T09:20:53;23.10;99.90
2363;DHT22;64265;51.664;7.626;2022-10-16T09:23:26;23.10;99.90
2363;DHT22;64265;51.664;7.626;2022-10-16T09:25:55;23.10;99.90
2363;DHT22;64265;51.664;7.626;2022-10-16T09:28:22;23.10;99.90
2363;DHT22;64265;51.664;7.626;2022-10-16T09:30:49;23.20;99.90
2363;DHT22;64265;51.664;7.626;2022-10-16T09:33:21;23.20;99.90
2363;DHT22;64265;51.664;7.626;2022-10-16T09:35:50;23.20;99.90
2363;DHT22;64265;51.664;7.626;2022-10-16T09:38:22;23.20;99.90
2363;DHT22;64265;51.664;7.626;2022-10-16T09:40:50;23.20;99.90
2363;DHT22;64265;51.664;7.626;2022-10-16T09:43:21;23.20;99.90
2363;DHT22;64265;51.664;7.626;2022-10-16T09:45:59;23.20;99.90
2363;DHT22;64265;51.664;7.626;2022-10-16T09:48:31;23.20;99.90
2363;DHT22;64265;51.664;7.626;2022-10-16T09:51:03;23.20;99.90
2363;DHT22;64265;51.664;7.626;2022-10-16T09:53:41;23.30;99.90
2363;DHT22;64265;51.664;7.626;2022-10-16T09:56:10;23.30;99.90
2363;DHT22;64265;51.664;7.626;2022-10-16T09:58:42;23.30;99.90
2363;DHT22;64265;51.664;7.626;2022-10-16T10:01:13;23.30;99.90
2363;DHT22;64265;51.664;7.626;2022-10-16T10:03:43;23.30;99.90
2363;DHT22;64265;51.664;7.626;2022-10-16T10:06:19;23.30;99.90
2363;DHT22;64265;51.664;7.626;2022-10-16T10:08:55;23.30;99.90
2363;DHT22;64265;51.664;7.626;2022-10-16T10:11:41;23.30;99.90
2363;DHT22;64265;51.664;7.626;2022-10-16T10:14:17;23.30;99.90
2363;DHT22;64265;51.664;7.626;2022-10-16T10:16:44;23.30;99.90
2363;DHT22;64265;51.664;7.626;2022-10-16T10:19:16;23.30;99.90
2363;DHT22;64265;51.664;7.626;2022-10-16T10:21:43;23.20;99.90
2363;DHT22;64265;51.664;7.626;2022-10-16T10:24:11;23.20;99.90
2363;DHT22;64265;51.664;7.626;2022-10-16T10:26:39;23.20;99.90
2363;DHT22;64265;51.664;7.626;2022-10-16T10:29:16;23.20;99.90
2363;DHT22;64265;51.664;7.626;2022-10-16T10:31:49;23.20;99.90
2363;DHT22;64265;51.664;7.626;2022-10-16T10:34:33;23.10;99.90
2363;DHT22;64265;51.664;7.626;2022-10-16T10:37:23;23.10;99.90
2363;DHT22;64265;51.664;7.626;2022-10-16T10:39:57;23.10;99.90
2363;DHT22;64265;51.664;7.626;2022-10-16T10:42:29;23.10;99.90
2363;DHT22;64265;51.664;7.626;2022-10-16T10:45:14;23.10;99.90
2363;DHT22;64265;51.664;7.626;2022-10-16T10:47:50;23.10;99.90
2363;DHT22;64265;51.664;7.626;2022-10-16T10:50:25;23.10;99.90
2363;DHT22;64265;51.664;7.626;2022-10-16T10:53:09;23.20;99.90
2363;DHT22;64265;51.664;7.626;2022-10-16T10:55:42;23.20;99.90
2363;DHT22;64265;51.664;7.626;2022-10-16T10:58:38;23.20;99.90
2363;DHT22;64265;51.664;7.626;2022-10-16T11:01:12;23.30;99.90
2363;DHT22;64265;51.664;7.626;2022-10-16T11:03:53;23.30;99.90
2363;DHT22;64265;51.664;7.626;2022-10-16T11:06:28;23.30;99.90
2363;DHT22;64265;51.664;7.626;2022-10-16T11:09:00;23.30;99.90
2363;DHT22;64265;51.664;7.626;2022-10-16T11:11:32;23.30;99.90
2363;DHT22;64265;51.664;7.626;2022-10-16T11:14:04;23.40;99.90
2363;DHT22;64265;51.664;7.626;2022-10-16T11:16:37;23.40;99.90
2363;DHT22;64265;51.664;7.626;2022-10-16T11:19:12;23.40;99.90
2363;DHT22;64265;51.664;7.626;2022-10-16T11:21:45;23.40;99.90
2363;DHT22;64265;51.664;7.626;2022-10-16T11:24:20;23.40;99.90
2363;DHT22;64265;51.664;7.626;2022-10-16T11:26:50;23.40;99.90
2363;DHT22;64265;51.664;7.626;2022-10-16T11:29:27;23.40;99.90
2363;DHT22;64265;51.664;7.626;2022-10-16T11:31:59;23.40;99.90
2363;DHT22;64265;51.664;7.626;2022-10-16T11:34:31;22.30;99.30
2363;DHT22;64265;51.664;7.626;2022-10-16T11:37:05;21.40;99.90
2363;DHT22;64265;51.664;7.626;2022-10-16T11:39:33;21.40;99.90
2363;DHT22;64265;51.664;7.626;2022-10-16T11:42:03;21.60;99.90
2363;DHT22;64265;51.664;7.626;2022-10-16T11:44:42;21.40;99.90
2363;DHT22;64265;51.664;7.626;2022-10-16T11:47:19;21.30;99.90
2363;DHT22;64265;51.664;7.626;2022-10-16T11:49:53;21.40;99.90
2363;DHT22;64265;51.664;7.626;2022-10-16T11:52:28;21.30;99.90
2363;DHT22;64265;51.664;7.626;2022-10-16T11:54:59;21.00;99.90
2363;DHT22;64265;51.664;7.626;2022-10-16T11:57:32;21.10;99.90
2363;DHT22;64265;51.664;7.626;2022-10-16T12:00:02;20.80;99.90
2363;DHT22;64265;51.664;7.626;2022-10-16T12:02:38;21.10;99.90
2363;DHT22;64265;51.664;7.626;2022-10-16T12:05:18;21.00;99.90
2363;DHT22;64265;51.664;7.626;2022-10-16T12:07:54;20.80;99.90
2363;DHT22;64265;51.664;7.626;2022-10-16T12:10:28;21.20;99.90
2363;DHT22;64265;51.664;7.626;2022-10-16T12:12:57;21.90;99.90
2363;DHT22;64265;51.664;7.626;2022-10-16T12:15:25;22.20;99.90
2363;DHT22;64265;51.664;7.626;2022-10-16T12:17:52;22.50;99.90
2363;DHT22;64265;51.664;7.626;2022-10-16T12:20:23;22.60;99.90
2363;DHT22;64265;51.664;7.626;2022-10-16T12:22:54;22.80;99.90
2363;DHT22;64265;51.664;7.626;2022-10-16T12:25:24;23.00;99.90
2363;DHT22;64265;51.664;7.626;2022-10-16T12:27:55;23.10;99.90
2363;DHT22;64265;51.664;7.626;2022-10-16T12:30:24;23.20;99.90
2363;DHT22;64265;51.664;7.626;2022-10-16T12:32:56;23.30;99.90
2363;DHT22;64265;51.664;7.626;2022-10-16T12:35:26;23.30;99.90
2363;DHT22;64265;51.664;7.626;2022-10-16T12:38:05;23.30;99.90
2363;DHT22;64265;51.664;7.626;2022-10-16T12:40:34;23.40;99.90
2363;DHT22;64265;51.664;7.626;2022-10-16T12:43:12;23.40;99.90
2363;DHT22;64265;51.664;7.626;2022-10-16T12:45:39;23.40;99.90
2363;DHT22;64265;51.664;7.626;2022-10-16T12:48:19;23.40;99.90
2363;DHT22;64265;51.664;7.626;2022-10-16T12:50:46;23.40;99.90
2363;DHT22;64265;51.664;7.626;2022-10-16T12:53:21;23.40;99.90
2363;DHT22;64265;51.664;7.626;2022-10-16T12:55:57;23.40;99.90
2363;DHT22;64265;51.664;7.626;2022-10-16T12:58:50;23.40;99.90
2363;DHT22;64265;51.664;7.626;2022-10-16T13:01:29;23.40;99.90
2363;DHT22;64265;51.664;7.626;2022-10-16T13:04:27;23.40;99.90
2363;DHT22;64265;51.664;7.626;2022-10-16T13:07:03;23.40;99.90
2363;DHT22;64265;51.664;7.626;2022-10-16T13:09:48;23.40;99.90
2363;DHT22;64265;51.664;7.626;2022-10-16T13:12:41;23.30;99.90
2363;DHT22;64265;51.664;7.626;2022-10-16T13:15:22;23.30;99.90
2363;DHT22;64265;51.664;7.626;2022-10-16T13:17:57;23.30;99.90
2363;DHT22;64265;51.664;7.626;2022-10-16T13:20:32;23.30;99.90
2363;DHT22;64265;51.664;7.626;2022-10-16T13:23:06;23.30;99.90
2363;DHT22;64265;51.664;7.626;2022-10-16T13:25:44;23.30;99.90
2363;DHT22;64265;51.664;7.626;2022-10-16T13:28:13;23.30;99.90
2363;DHT22;64265;51.664;7.626;2022-10-16T13:30:41;23.30;99.90
2363;DHT22;64265;51.664;7.626;2022-10-16T13:33:14;23.30;99.90
2363;DHT22;64265;51.664;7.626;2022-10-16T13:35:48;23.30;99.90
2363;DHT22;64265;51.664;7.626;2022-10-16T13:38:16;23.30;99.90
2363;DHT22;64265;51.664;7.626;2022-10-16T13:40:53;23.30;99.90
2363;DHT22;64265;51.664;7.626;2022-10-16T13:43:24;23.30;99.90
2363;DHT22;64265;51.664;7.626;2022-10-16T13:45:57;23.30;99.90
2363;DHT22;64265;51.664;7.626;2022-10-16T13:48:24;23.30;99.90
2363;DHT22;64265;51.664;7.626;2022-10-16T13:51:06;23.30;99.90
2363;DHT22;64265;51.664;7.626;2022-10-16T13:53:34;23.30;99.90
2363;DHT22;64265;51.664;7.626;2022-10-16T13:56:04;23.30;99.90
2363;DHT22;64265;51.664;7.626;2022-10-16T13:58:32;23.30;99.90
2363;DHT22;64265;51.664;7.626;2022-10-16T14:01:01;23.30;99.90
2363;DHT22;64265;51.664;7.626;2022-10-16T14:03:28;23.30;99.90
2363;DHT22;64265;51.664;7.626;2022-10-16T14:05:59;23.40;99.90
2363;DHT22;64265;51.664;7.626;2022-10-16T14:08:27;23.40;99.90
2363;DHT22;64265;51.664;7.626;2022-10-16T14:10:56;23.40;99.90
2363;DHT22;64265;51.664;7.626;2022-10-16T14:13:30;23.40;99.90
2363;DHT22;64265;51.664;7.626;2022-10-16T14:15:59;23.40;99.90
2363;DHT22;64265;51.664;7.626;2022-10-16T14:18:28;23.40;99.90
2363;DHT22;64265;51.664;7.626;2022-10-16T14:21:03;23.40;99.90
2363;DHT22;64265;51.664;7.626;2022-10-16T14:23:32;23.40;99.90
2363;DHT22;64265;51.664;7.626;2022-10-16T14:26:14;23.40;99.90
2363;DHT22;64265;51.664;7.626;2022-10-16T14:28:44;23.50;99.90
2363;DHT22;64265;51.664;7.626;2022-10-16T14:31:28;23.40;99.90
2363;DHT22;64265;51.664;7.626;2022-10-16T14:33:58;23.40;99.90
2363;DHT22;64265;51.664;7.626;2022-10-16T14:36:26;23.40;99.90
2363;DHT22;64265;51.664;7.626;2022-10-16T14:38:59;23.40;99.90
2363;DHT22;64265;51.664;7.626;2022-10-16T14:41:28;23.50;99.90
2363;DHT22;64265;51.664;7.626;2022-10-16T14:43:57;23.40;99.90
2363;DHT22;64265;51.664;7.626;2022-10-16T14:46:31;23.40;99.90
2363;DHT22;64265;51.664;7.626;2022-10-16T14:49:02;23.40;99.90
2363;DHT22;64265;51.664;7.626;2022-10-16T14:51:29;23.40;99.90
2363;DHT22;64265;51.664;7.626;2022-10-16T14:53:56;23.40;99.90
2363;DHT22;64265;51.664;7.626;2022-10-16T14:56:25;23.40;99.90
2363;DHT22;64265;51.664;7.626;2022-10-16T14:58:56;23.40;99.90
2363;DHT22;64265;51.664;7.626;2022-10-16T15:01:23;23.40;99.90
2363;DHT22;64265;51.664;7.626;2022-10-16T15:03:50;23.40;99.90
2363;DHT22;64265;51.664;7.626;2022-10-16T15:06:17;23.40;99.90
2363;DHT22;64265;51.664;7.626;2022-10-16T15:08:44;23.40;99.90
2363;DHT22;64265;51.664;7.626;2022-10-16T15:11:13;23.40;99.90
2363;DHT22;64265;51.664;7.626;2022-10-16T15:13:40;23.40;99.90
2363;DHT22;64265;51.664;7.626;2022-10-16T15:16:11;23.30;99.90
2363;DHT22;64265;51.664;7.626;2022-10-16T15:18:38;23.40;99.90
2363;DHT22;64265;51.664;7.626;2022-10-16T15:21:05;23.40;99.90
2363;DHT22;64265;51.664;7.626;2022-10-16T15:23:32;23.40;99.90
2363;DHT22;64265;51.664;7.626;2022-10-16T15:25:58;23.40;99.90
2363;DHT22;64265;51.664;7.626;2022-10-16T15:28:25;23.40;99.90
2363;DHT22;64265;51.664;7.626;2022-10-16T15:30:54;23.40;99.90
2363;DHT22;64265;51.664;7.626;2022-10-16T15:33:24;23.40;99.90
2363;DHT22;64265;51.664;7.626;2022-10-16T15:35:53;23.40;99.90
2363;DHT22;64265;51.664;7.626;2022-10-16T15:38:20;23.40;99.90
2363;DHT22;64265;51.664;7.626;2022-10-16T15:40:48;23.40;99.90
2363;DHT22;64265;51.664;7.626;2022-10-16T15:43:15;23.40;99.90
2363;DHT22;64265;51.664;7.626;2022-10-16T15:45:42;23.40;99.90
2363;DHT22;64265;51.664;7.626;2022-10-16T15:48:10;23.40;99.80
2363;DHT22;64265;51.664;7.626;2022-10-16T15:50:40;23.40;99.70
2363;DHT22;64265;51.664;7.626;2022-10-16T15:53:08;23.40;99.50
2363;DHT22;64265;51.664;7.626;2022-10-16T15:55:34;23.40;99.50
2363;DHT22;64265;51.664;7.626;2022-10-16T15:58:03;23.40;99.70
2363;DHT22;64265;51.664;7.626;2022-10-16T16:00:30;23.50;99.90
2363;DHT22;64265;51.664;7.626;2022-10-16T16:02:57;23.50;99.90